Crisopolis, Brazil
Current Conditions -  °F | °C
As of 12:00 PM on Saturday 25 Oct 2014 (Local Time) from SBAR Reporting Station
Scattered Clouds Scattered Clouds  
Wind Chill: 82°   Ceiling: Unl
Heat Index: 85°   Visibility: 6mi
Dew Point: 68°   Wind: 14mph
Humidity: 62%   Direction: 110°ESE
Pressure: 29.94"   Gusts: NA
Location:  11.52°S, 38.15°W
Report Text: SBAR 251500Z 11012KT 9999 SCT016 28/20 Q1014
Loading
Personal Weather Stations






























Interactive Weather Map
Tropical Storm Tracking
New forecast layout! Learn more

10-Day Weather Forecast

Advertisements
Track Severe Weather on mobile